Terminal Aerodrome Forecast
Issued by NWS Sioux Falls, SD

Home | Current Version | Previous Version | Text Only | Print | Product List | Glossary Off
Versions: 1 2 3 4 5 6 7 8 9 10 11 12 13 14 15 16 17 18 19

000
FTUS43 KFSD 141741
TAFHON
TAF
KHON 141741Z 1418/1518 01013KT 4SM SHRA OVC022
      TEMPO 1418/1420 2SM SHRA BR OVC015
     FM142100 36016G24KT 4SM SHRA BR OVC015
     FM142300 36019G27KT 5SM -SHRA OVC015
     FM150200 32016G24KT P6SM OVC025
     FM150400 31014KT P6SM SCT030
     FM151400 24005KT P6SM FEW200
     FM151700 26010KT P6SM FEW200=

USA.gov is the U.S. government's official web portal to all federal, state and local government web resources and services.